Aviation Digital Data Service (ADDS)

Output produced by METARs form (0219 UTC 16 January 2019)
found at http://www.aviationweather.gov/metar/data/
 
LJLJ 160200Z 00000KT CAVOK M03/M06 Q1017 NOSIG
TAF LJLJ 160200Z 1603/1703 29005KT CAVOK 
     BECMG 1610/1613 26005KT FEW050 
     TEMPO 1612/1618 26010KT 
     PROB30 
     TEMPO 1612/1618 BKN050 
     BECMG 1618/1620 29005KT BKN040
       
LJMB 160200Z AUTO 00000KT 9999 NSC M02/M06 Q1015
TAF LJMB 160200Z 1603/1703 20005KT CAVOK 
     PROB40 1608/1618 36005KT 
     BECMG 1618/1620 21010KT 
     TEMPO 1620/1703 21015G25KT
       
LJPZ 160200Z AUTO 12008KT 9999 NSC 05/M00 Q1019
TAF LJPZ 160200Z 1603/1612 12010KT CAVOK 
     BECMG 1607/1609 17005KT SCT045 
     BECMG 1609/1611 23010KT 
     TEMPO 1609/1612 BKN045